Terminal Aerodrome Forecast
Issued by NWS

Home | Current Version | Previous Version | Text Only | Print | Product List | Glossary On
Versions: 1 2 3 4 5 6 7 8 9 10 11 12 13
000
FTUS45 KGGW 231100
TAFSDY
TAF
KSDY 231132Z 2312/2412 14015KT P6SM BKN120
     FM231500 27016KT P6SM -SHRA SCT025 BKN060
     FM231800 28020G30KT P6SM VCSH BKN060
     FM240000 25012KT P6SM BKN100
      AMD LTD TO CLD VIS AND WIND=

USA.gov is the U.S. government's official web portal to all federal, state and local government web resources and services.